Date,TemperatureHighF,TemperatureAvgF,TemperatureLowF,DewpointHighF,DewpointAvgF,DewpointLowF,HumidityHigh,HumidityAvg,HumidityLow,PressureMaxIn,PressureMinIn,WindSpeedMaxMPH,WindSpeedAvgMPH,GustSpeedMaxMPH,PrecipitationSumIn
2013-1-1,31.2,12.9,5.5,29.0,7.7,1.0,93,80,71,29.97,29.70,0,0,0,0.00
2013-1-2,17.2,6.1,-9.8,14.0,0.4,-14.0,86,77,62,30.28,29.87,0,0,0,0.00
2013-1-3,24.9,4.5,-9.9,23.0,0.3,-14.0,92,82,73,30.27,29.88,0,0,0,0.00
2013-1-4,32.1,29.6,24.6,28.0,25.4,22.0,91,84,79,29.88,29.73,0,0,0,0.00
2013-1-5,32.5,25.1,17.2,27.0,17.7,12.0,88,73,63,30.25,29.80,0,0,0,0.00
2013-1-6,34.1,29.5,18.9,32.0,26.9,17.0,95,90,77,30.07,29.82,0,0,0,0.05
2013-1-7,27.4,18.6,9.7,23.0,15.3,6.0,92,87,84,30.40,30.06,0,0,0,0.00
2013-1-8,34.9,32.7,28.6,30.0,27.1,23.0,85,80,76,30.32,30.10,0,0,0,0.91
2013-1-9,43.0,36.6,29.8,34.0,29.0,22.0,85,74,65,30.30,29.82,0,0,0,0.00
2013-1-10,38.2,33.3,26.4,30.0,25.6,23.0,85,74,63,30.54,30.08,0,0,0,0.00
2013-1-11,41.0,33.1,26.2,39.0,28.5,22.0,92,83,70,30.48,29.95,0,0,0,0.04
2013-1-12,56.6,47.7,41.3,47.0,43.1,39.0,93,84,70,30.00,29.92,0,0,0,0.00
2013-1-13,59.2,52.3,45.7,53.0,48.1,43.0,92,85,78,29.99,29.70,0,0,0,0.26
2013-1-14,56.0,40.9,31.7,51.0,34.5,25.0,93,78,61,30.28,29.65,0,0,0,0.05
2013-1-15,34.1,29.8,26.0,26.0,20.9,18.0,81,70,58,30.34,30.20,0,0,0,0.00
2013-1-16,35.7,31.2,27.1,29.0,25.3,21.0,85,79,73,30.19,29.71,0,0,0,0.00
2013-1-17,34.6,14.9,0.7,30.0,5.7,-11.0,93,68,47,30.23,29.72,0,0,0,0.03
2013-1-18,24.6,11.1,-2.9,14.0,1.3,-8.0,85,66,47,30.39,30.08,0,0,0,0.00
2013-1-19,46.4,35.9,24.9,33.0,25.9,12.0,86,68,54,30.07,29.55,0,0,0,0.00
2013-1-20,46.9,31.1,10.7,35.0,18.2,1.0,90,60,48,30.00,29.25,0,0,0,0.06
2013-1-21,12.0,6.2,1.7,2.0,-0.3,-5.0,83,75,65,30.06,29.85,0,0,0,0.00
2013-1-22,8.8,4.9,-3.4,4.0,-1.4,-11.0,85,75,57,30.15,29.82,0,0,0,0.00
2013-1-23,-0.9,-6.9,-13.7,-11.0,-15.8,-20.0,75,66,52,30.27,30.15,0,0,0,0.00
2013-1-24,7.3,-1.7,-10.2,-7.0,-11.2,-15.0,79,65,49,30.46,30.20,0,0,0,0.00
2013-1-25,12.4,4.7,-3.5,3.0,-4.2,-9.0,85,67,51,30.46,30.13,0,0,0,0.00
2013-1-26,14.8,8.1,-2.2,8.0,1.1,-6.0,86,74,56,30.36,30.12,0,0,0,0.00
2013-1-27,19.1,11.4,1.5,7.0,1.5,-2.0,84,66,41,30.56,30.37,0,0,0,0.00
2013-1-28,27.7,21.9,15.7,25.0,15.9,3.0,91,79,47,30.44,29.93,0,0,0,0.36
2013-1-29,47.7,24.8,16.2,46.0,22.3,14.0,95,90,87,30.11,29.76,0,0,0,0.10
2013-1-30,65.8,57.5,47.6,55.0,50.9,46.0,94,79,63,29.76,29.09,0,0,0,0.20
2013-1-31,54.8,34.2,18.5,52.0,25.1,7.0,91,70,51,29.54,28.80,0,0,0,0.79
2013-2-1,18.0,11.4,6.7,11.0,4.0,-1.0,85,72,58,30.16,29.55,0,0,0,0.00
2013-2-2,18.4,13.0,5.1,15.0,8.6,-2.0,89,82,70,30.19,29.98,0,0,0,0.03
2013-2-3,21.3,12.8,5.4,15.0,8.9,2.0,88,84,76,29.99,29.78,0,0,0,0.01
2013-2-4,18.6,11.3,-2.6,11.0,3.4,-7.0,89,72,40,29.94,29.78,0,0,0,0.01
2013-2-5,21.6,9.6,-7.4,8.0,-1.8,-11.0,84,63,40,30.01,29.85,0,0,0,0.00
2013-2-6,24.6,16.6,5.2,22.0,7.0,-4.0,90,67,45,30.40,29.81,0,0,0,0.00
2013-2-7,13.0,5.7,0.0,0.0,-3.6,-8.0,78,66,49,30.57,30.34,0,0,0,0.00
2013-2-8,13.6,7.9,4.0,11.0,4.8,-1.0,89,86,74,30.34,29.99,0,0,0,0.00
2013-2-9,14.6,10.0,2.0,11.0,6.5,-2.0,89,85,78,30.39,30.08,0,0,0,0.01
2013-2-10,30.2,14.4,0.3,13.0,5.4,-4.0,85,69,47,30.45,30.11,0,0,0,0.00
2013-2-11,43.4,28.6,14.4,38.0,23.7,7.0,91,81,71,30.09,29.55,0,0,0,0.11
2013-2-12,35.0,32.7,29.5,32.0,29.0,25.0,93,86,75,29.84,29.55,0,0,0,0.13
2013-2-13,34.3,30.6,27.8,28.0,25.3,23.0,88,81,69,29.82,29.73,0,0,0,0.00
2013-2-14,37.3,31.6,27.4,30.0,24.2,22.0,89,75,57,29.89,29.75,0,0,0,0.00
2013-2-15,37.3,33.6,25.6,33.0,26.6,18.0,90,76,62,29.95,29.72,0,0,0,0.02
2013-2-16,25.6,16.9,8.6,20.0,7.1,3.0,83,66,48,30.06,29.95,0,0,0,0.00
2013-2-17,11.6,7.0,-0.3,3.0,-0.5,-4.0,85,72,60,30.03,29.85,0,0,0,0.00
2013-2-18,20.4,10.0,0.0,3.0,-0.9,-5.0,78,62,47,30.24,30.04,0,0,0,0.00
2013-2-19,36.3,27.7,16.2,34.0,18.7,3.0,92,70,52,30.06,29.57,0,0,0,0.36
2013-2-20,29.1,23.7,11.0,24.0,17.7,8.0,89,78,66,29.89,29.61,0,0,0,0.01
2013-2-21,19.8,11.9,5.3,17.0,7.0,-1.0,92,80,74,30.41,29.89,0,0,0,0.01
2013-2-22,36.2,27.6,20.1,25.0,21.4,17.0,89,78,63,30.43,30.12,0,0,0,0.00
2013-2-23,38.7,34.7,29.9,34.0,30.8,24.0,94,86,72,30.11,29.82,0,0,0,0.06
2013-2-24,35.7,33.3,31.2,33.0,29.3,26.0,94,85,69,29.95,29.79,0,0,0,0.00
2013-2-25,37.8,33.5,31.1,32.0,30.2,28.0,91,87,74,30.22,29.95,0,0,0,0.00
2013-2-26,44.3,35.8,28.9,31.0,28.5,26.0,88,76,51,30.27,29.99,0,0,0,0.00
2013-2-27,34.5,32.9,31.9,32.0,30.7,29.0,95,91,83,30.00,29.56,0,0,0,0.68
2013-2-28,38.2,34.4,31.7,34.0,32.4,31.0,95,92,83,29.64,29.49,0,0,0,0.06
2013-3-1,32.8,30.4,25.8,31.0,27.8,23.0,95,90,82,29.83,29.64,0,0,0,0.06
2013-3-2,25.4,21.6,19.4,23.0,17.6,16.0,92,84,76,29.86,29.81,0,0,0,0.02
2013-3-3,25.1,21.3,16.9,19.0,16.6,14.0,89,82,70,29.82,29.76,0,0,0,0.01
2013-3-4,27.5,22.0,18.0,21.0,16.5,13.0,89,79,65,29.96,29.78,0,0,0,0.01
2013-3-5,36.2,27.9,21.9,27.0,21.8,18.0,86,78,66,30.09,29.96,0,0,0,0.00
2013-3-6,43.4,34.1,26.9,32.0,29.1,24.0,92,82,64,30.18,30.07,0,0,0,0.00
2013-3-7,33.0,30.7,27.3,28.0,25.1,23.0,91,80,69,30.25,30.15,0,0,0,0.01
2013-3-8,38.0,31.7,25.8,25.0,23.1,20.0,87,71,56,30.35,30.21,0,0,0,0.01
2013-3-9,46.2,33.7,20.7,26.0,22.4,17.0,88,66,42,30.38,30.26,0,0,0,0.00
2013-3-10,59.5,46.8,30.0,26.0,22.9,19.0,78,43,22,30.25,29.98,0,0,0,0.00
2013-3-11,57.4,52.7,48.1,41.0,29.1,25.0,72,41,33,30.01,29.70,0,0,0,0.02
2013-3-12,50.5,41.5,35.9,45.0,38.0,32.0,93,87,73,29.81,29.67,0,0,0,0.28
2013-3-13,39.0,34.8,30.8,33.0,29.7,24.0,90,82,63,29.82,29.74,0,0,0,0.02
2013-3-14,30.6,19.8,13.3,25.0,12.5,5.0,91,74,61,29.96,29.73,0,0,0,0.01
2013-3-15,35.2,24.0,13.6,31.0,16.6,7.0,93,74,61,29.97,29.55,0,0,0,0.04
2013-3-16,22.8,17.2,10.5,17.0,8.4,4.0,80,69,57,29.94,29.82,0,0,0,0.00
2013-3-17,23.8,17.2,9.4,9.0,4.6,0.0,77,59,37,30.35,29.93,0,0,0,0.00
2013-3-18,32.9,23.5,7.9,23.0,8.4,2.0,79,55,31,30.41,29.95,0,0,0,0.00
2013-3-19,37.6,31.4,25.2,33.0,27.4,19.0,92,85,68,29.93,29.66,0,0,0,0.17
2013-3-20,32.8,27.2,20.2,26.0,21.5,17.0,89,80,64,29.72,29.65,0,0,0,0.00
2013-3-21,33.7,26.9,19.9,22.0,18.3,15.0,84,71,50,29.70,29.63,0,0,0,0.00
2013-3-22,29.8,26.0,22.1,24.0,20.5,17.0,90,80,64,29.78,29.62,0,0,0,0.03
2013-3-23,37.3,32.0,25.3,25.0,22.5,20.0,90,69,50,29.87,29.75,0,0,0,0.00
2013-3-24,36.7,33.7,28.6,26.0,24.4,23.0,79,69,59,29.91,29.80,0,0,0,0.00
2013-3-25,41.8,34.0,26.0,28.0,25.2,21.0,84,71,56,29.80,29.61,0,0,0,0.00
2013-3-26,45.1,37.8,30.7,27.0,24.5,22.0,83,61,42,29.81,29.67,0,0,0,0.00
2013-3-27,44.9,39.6,34.4,31.0,29.0,27.0,82,67,56,29.95,29.79,0,0,0,0.00
2013-3-28,47.6,40.3,33.9,37.0,32.5,27.0,83,74,63,30.07,29.93,0,0,0,0.00
2013-3-29,44.1,39.5,35.2,36.0,32.7,30.0,88,77,58,30.10,30.05,0,0,0,0.00
2013-3-30,51.5,40.1,29.4,31.0,23.8,16.0,89,58,25,30.14,30.03,0,0,0,0.00
2013-3-31,57.1,44.4,35.6,40.0,28.0,20.0,93,56,31,30.02,29.61,0,0,0,0.09
2013-4-1,43.2,37.4,27.4,40.0,27.9,11.0,93,70,47,29.80,29.48,0,0,0,0.06
2013-4-2,32.4,27.5,22.2,18.0,12.2,7.0,82,54,40,29.94,29.79,0,0,0,0.00
2013-4-3,38.1,30.6,23.2,18.0,11.9,8.0,63,47,30,30.24,29.94,0,0,0,0.00
2013-4-4,49.0,37.0,24.3,25.0,19.5,16.0,76,52,28,30.25,29.86,0,0,0,0.00
2013-4-5,40.7,36.4,28.4,33.0,23.2,14.0,89,61,42,30.05,29.79,0,0,0,0.02
2013-4-6,41.4,31.3,22.0,15.0,10.6,6.0,68,45,24,30.30,30.05,0,0,0,0.00
2013-4-7,62.2,51.7,35.8,45.0,32.0,11.0,69,48,31,30.13,29.63,0,0,0,0.01
2013-4-8,56.3,44.9,38.9,37.0,33.5,31.0,87,66,40,30.13,29.81,0,0,0,0.03
2013-4-9,47.9,43.1,37.4,43.0,39.8,36.0,94,88,78,30.03,29.70,0,0,0,0.18
2013-4-10,47.4,44.6,39.5,43.0,39.2,30.0,94,82,68,30.02,29.90,0,0,0,0.06
2013-4-11,38.9,34.2,30.7,29.0,20.6,14.0,71,58,42,30.17,29.97,0,0,0,0.00
2013-4-12,41.2,33.2,29.1,40.0,28.2,14.0,95,84,43,30.14,29.66,0,0,0,1.06
2013-4-13,45.0,41.2,38.2,40.0,36.9,34.0,92,84,72,29.84,29.70,0,0,0,0.00
2013-4-14,44.7,38.7,31.9,35.0,32.2,28.0,93,78,56,30.20,29.84,0,0,0,0.06
2013-4-15,67.2,49.2,30.5,41.0,34.3,27.0,86,60,37,30.28,30.05,0,0,0,0.00
2013-4-16,62.2,55.9,45.6,55.0,47.2,37.0,93,74,51,30.12,29.85,0,0,0,0.29
2013-4-17,53.4,45.4,37.2,37.0,32.1,26.0,86,62,39,30.33,30.12,0,0,0,0.00
2013-4-18,71.6,54.4,40.4,54.0,41.1,28.0,82,62,46,30.30,29.70,0,0,0,0.02
2013-4-19,76.2,63.0,41.9,59.0,52.5,36.0,89,70,51,29.71,29.30,0,0,0,0.18
2013-4-20,44.9,39.0,29.7,35.0,28.5,18.0,85,67,53,30.32,29.63,0,0,0,0.02
2013-4-21,45.8,35.2,26.3,21.0,17.3,15.0,70,50,32,30.65,30.33,0,0,0,0.00
2013-4-22,61.6,47.3,31.7,24.0,19.9,16.0,63,37,18,30.64,30.39,0,0,0,0.00
2013-4-23,66.4,52.3,39.0,39.0,26.8,17.0,67,40,16,30.39,30.01,0,0,0,0.00
2013-4-24,75.5,58.7,43.7,55.0,43.8,39.0,87,61,30,30.00,29.52,0,0,0,0.04
2013-4-25,53.8,44.1,36.5,40.0,31.4,27.0,92,64,38,30.24,29.71,0,0,0,0.07
2013-4-26,54.0,44.9,38.3,40.0,33.9,28.0,91,68,39,30.42,30.25,0,0,0,0.11
2013-4-27,60.3,46.9,33.3,40.0,34.4,30.0,86,64,44,30.43,30.26,0,0,0,0.00
2013-4-28,75.2,60.0,42.0,45.0,40.1,36.0,80,52,29,30.27,30.01,0,0,0,0.00
2013-4-29,61.8,58.7,53.7,48.0,44.9,38.0,72,61,44,30.08,30.03,0,0,0,0.00
2013-4-30,72.1,62.4,54.2,55.0,50.6,47.0,81,66,48,30.21,30.09,0,0,0,0.01
2013-5-1,82.2,68.1,54.1,51.0,47.3,43.0,81,52,26,30.36,30.22,0,0,0,0.00
2013-5-2,82.2,69.4,56.0,50.0,43.8,37.0,67,42,26,30.38,30.25,0,0,0,0.00
2013-5-3,77.7,67.4,57.2,50.0,42.2,32.0,69,43,26,30.34,30.21,0,0,0,0.00
2013-5-4,78.5,66.8,53.7,44.0,38.1,33.0,58,36,25,30.27,30.12,0,0,0,0.00
2013-5-5,81.8,67.8,53.5,46.0,42.1,39.0,64,43,23,30.16,30.04,0,0,0,0.00
2013-5-6,80.2,68.1,56.1,45.0,37.6,31.0,58,34,22,30.13,29.98,0,0,0,0.00
2013-5-7,81.7,68.6,55.4,53.0,44.4,38.0,69,44,23,30.07,29.97,0,0,0,0.00
2013-5-8,82.3,67.8,55.1,61.0,52.2,43.0,93,61,27,30.05,29.93,0,0,0,0.19
2013-5-9,74.2,65.3,55.7,60.0,55.9,52.0,94,74,46,29.93,29.80,0,0,0,0.01
2013-5-10,70.7,61.9,55.8,59.0,55.8,52.0,93,80,66,29.95,29.70,0,0,0,0.05
2013-5-11,61.9,55.9,47.0,60.0,52.4,44.0,94,88,79,29.70,29.56,0,0,0,0.34
2013-5-12,52.1,47.0,35.6,46.0,37.5,29.0,89,72,43,29.72,29.59,0,0,0,0.04
2013-5-13,48.3,41.9,35.3,39.0,32.9,30.0,92,71,56,30.01,29.71,0,0,0,0.02
2013-5-14,57.3,46.2,33.2,35.0,31.3,29.0,87,59,34,30.09,29.98,0,0,0,0.00
2013-5-15,67.7,52.8,37.5,55.0,39.8,26.0,80,63,36,29.98,29.46,0,0,0,0.08
2013-5-16,70.8,58.2,47.6,47.0,41.6,35.0,75,56,28,29.93,29.58,0,0,0,0.00
2013-5-17,68.8,55.6,42.8,47.0,40.3,33.0,85,60,27,30.19,29.93,0,0,0,0.00
2013-5-18,74.3,61.1,44.1,44.0,39.9,37.0,79,50,28,30.26,30.15,0,0,0,0.00
2013-5-19,68.0,60.5,53.2,57.0,51.0,38.0,87,72,52,30.18,29.96,0,0,0,0.03
2013-5-20,73.2,65.2,59.9,63.0,59.2,56.0,92,81,68,30.00,29.89,0,0,0,0.05
2013-5-21,64.7,61.4,56.7,62.0,57.9,55.0,94,88,78,29.91,29.72,0,0,0,0.72
2013-5-22,82.3,68.2,56.8,70.0,63.0,55.0,96,85,61,29.79,29.56,0,0,0,0.66
2013-5-23,74.2,65.5,47.8,67.0,60.8,46.0,94,85,65,29.79,29.63,0,0,0,0.31
2013-5-24,48.5,45.0,41.5,46.0,42.2,39.0,94,90,74,30.07,29.78,0,0,0,0.54
2013-5-25,52.7,46.6,44.0,43.0,39.1,37.0,92,76,59,30.09,30.02,0,0,0,0.08
2013-5-26,62.9,50.8,43.4,43.0,38.9,33.0,91,68,33,30.06,29.97,0,0,0,0.21
2013-5-27,68.8,55.9,41.4,41.0,36.5,31.0,81,52,25,30.18,30.06,0,0,0,0.00
2013-5-28,66.8,23.2,47.8,43.0,-39.4,-99.9,68,26,41,30.14,29.97,0,-562,0,0.00
2013-5-29,-200.0,0.0,200.0,-99.9,-99.9,-99.9,0,0,100,29.97,29.83,0,-999,0,0.00
2013-5-30,-200.0,0.0,200.0,-99.9,-99.9,-99.9,0,0,100,30.05,29.93,0,-999,0,0.00
2013-5-31,-200.0,0.0,200.0,-99.9,-99.9,-99.9,0,0,100,30.02,29.87,0,-999,0,0.00
2013-6-1,-200.0,0.0,200.0,-99.9,-99.9,-99.9,0,0,100,29.90,29.70,0,-999,0,0.00
2013-6-2,-200.0,0.0,200.0,-99.9,-99.9,-99.9,0,0,100,29.73,29.62,0,-999,0,0.00
2013-6-3,-200.0,0.0,200.0,-99.9,-99.9,-99.9,0,0,100,29.87,29.73,0,-999,0,0.00
2013-6-4,-200.0,0.0,200.0,-99.9,-99.9,-99.9,0,0,100,30.00,29.86,0,-999,0,0.00
2013-6-12,74.7,65.0,60.6,58.0,47.3,-99.9,83,61,50,29.81,0.00,10,-50,14,0.00
2013-6-13,68.7,62.4,56.3,62.0,57.1,52.0,91,83,74,29.78,29.61,5,2,12,0.05
2013-6-14,76.6,64.3,51.4,58.0,51.6,45.0,94,67,35,29.87,29.70,12,4,17,0.01
2013-6-15,74.7,62.4,46.8,51.0,47.1,44.0,89,60,39,29.95,29.86,11,4,21,0.00
2013-6-16,65.3,60.4,56.6,62.0,55.0,46.0,96,83,60,29.87,29.63,6,2,10,0.68
2013-6-17,68.5,61.8,53.4,60.0,56.4,50.0,96,83,65,29.93,29.71,11,4,14,0.00
2013-6-18,70.8,59.4,48.2,52.0,48.0,44.0,98,70,40,30.01,29.90,6,2,11,0.00
2013-6-19,68.7,57.7,42.4,49.0,42.1,37.0,92,60,36,30.15,30.01,8,2,12,0.00
2013-6-20,75.4,62.1,46.8,50.0,46.9,43.0,87,61,36,30.22,30.15,8,3,14,0.00
2013-6-21,80.6,68.4,57.2,59.0,50.9,43.0,78,55,42,30.23,30.14,8,3,15,0.00
2013-6-22,76.9,69.5,63.2,67.0,62.5,56.0,93,79,63,30.15,30.00,8,2,10,0.02
2013-6-23,83.4,72.8,62.7,76.0,68.5,61.0,96,87,73,30.04,29.90,10,3,14,0.05
2013-6-24,87.4,78.2,70.1,75.0,69.8,66.0,88,76,61,29.95,29.81,14,4,17,0.00
2013-6-25,83.9,75.2,67.6,73.0,68.4,65.0,94,79,66,29.85,29.69,12,4,20,0.31
2013-6-26,82.3,72.5,66.8,71.0,67.9,65.0,95,86,67,29.73,29.68,15,3,15,0.00
2013-6-27,82.5,74.2,67.5,70.0,67.1,64.0,91,79,63,29.74,29.65,9,3,13,0.00
2013-6-28,68.5,60.0,56.6,64.0,58.0,55.0,96,93,86,29.65,29.45,12,4,18,1.17
2013-6-29,74.9,65.5,59.6,65.0,61.2,58.0,96,86,64,29.65,29.47,6,2,10,0.03
2013-6-30,79.6,69.5,62.4,64.0,61.2,60.0,93,76,55,29.90,29.65,10,2,12,0.00
2013-7-1,73.3,66.4,61.1,64.0,59.9,56.0,91,80,63,30.06,29.91,10,3,18,0.06
2013-7-2,77.7,65.5,57.4,69.0,61.2,55.0,94,86,73,30.07,30.03,9,3,15,0.04
2013-7-3,82.7,71.6,63.6,74.0,67.7,62.0,96,88,72,30.13,30.05,7,2,11,0.16
2013-7-4,83.9,76.3,70.3,77.0,70.9,67.0,93,84,69,30.12,30.01,11,3,17,0.09
2013-7-5,84.6,77.4,71.7,73.0,70.3,67.0,87,79,65,30.08,29.98,10,3,16,0.00
2013-7-6,84.4,75.7,69.9,70.0,67.2,63.0,92,76,53,30.05,29.96,10,4,17,0.00
2013-7-7,81.1,74.9,69.7,73.0,68.2,63.0,86,80,68,29.99,29.87,10,2,15,0.00
2013-7-8,80.3,71.0,65.8,70.0,67.0,64.0,95,87,68,30.00,29.87,8,2,10,0.36
2013-7-9,87.5,76.6,66.3,73.0,69.0,65.0,95,79,59,30.02,29.87,7,2,9,0.00
2013-7-10,83.1,76.2,70.3,74.0,70.6,65.0,94,83,71,29.86,29.62,13,4,20,0.80
2013-7-11,79.3,71.4,64.3,69.0,61.8,57.0,94,73,50,30.01,29.67,10,3,14,0.01
2013-7-12,77.3,68.3,57.8,61.0,58.6,55.0,92,72,55,30.16,30.01,8,3,12,0.00
2013-7-13,85.8,73.5,59.3,69.0,63.2,56.0,90,72,47,30.23,30.16,8,2,14,0.00
2013-7-14,88.0,78.8,71.8,73.0,70.1,68.0,87,75,61,30.27,30.17,7,2,11,0.00
2013-7-15,90.2,78.8,69.4,71.0,67.9,65.0,87,71,46,30.21,30.13,9,3,13,0.00
2013-7-16,91.5,80.3,68.6,74.0,69.4,66.0,90,71,48,30.20,30.12,6,2,11,0.00
2013-7-17,91.9,80.8,73.1,78.0,71.9,67.0,87,75,61,30.13,29.94,12,3,19,0.00
2013-7-18,88.2,75.9,70.5,76.0,71.3,68.0,95,86,63,29.99,29.85,11,3,32,0.99
2013-7-19,91.1,78.8,69.3,78.0,72.2,67.0,95,81,58,29.86,29.57,25,6,42,0.37
2013-7-20,82.7,73.3,65.7,72.0,66.0,59.0,94,80,46,29.81,29.60,15,5,21,0.23
2013-7-21,75.1,65.7,56.7,63.0,54.0,51.0,88,67,46,30.00,29.81,7,3,11,0.00
2013-7-22,80.3,66.6,53.0,61.0,55.7,51.0,92,70,46,29.99,29.76,6,2,11,0.00
2013-7-23,85.5,74.1,66.0,71.0,65.7,61.0,90,76,58,29.75,29.50,8,3,17,0.00
2013-7-24,71.4,61.8,53.2,66.0,52.1,46.0,86,71,54,30.00,29.52,12,5,16,0.00
2013-7-25,71.1,61.5,48.5,52.0,49.2,46.0,91,66,47,30.13,30.01,11,3,15,0.00
2013-7-26,77.4,63.8,49.7,58.0,53.3,47.0,92,71,48,30.09,29.98,7,2,12,0.00
2013-7-27,85.8,70.7,55.7,66.0,59.6,53.0,92,70,44,29.99,29.84,9,2,11,0.08
2013-7-28,75.7,69.0,64.3,70.0,65.2,62.0,94,88,73,29.91,29.82,9,3,15,0.24
2013-7-29,73.8,63.5,57.3,62.0,57.6,54.0,93,82,53,30.05,29.91,12,3,19,0.13
2013-7-30,74.9,65.9,56.7,61.0,58.5,55.0,94,78,58,30.11,30.05,9,3,17,0.00
2013-7-31,79.5,68.8,58.4,64.0,60.2,56.0,94,76,52,30.09,29.95,9,3,13,0.00
2013-8-1,77.7,69.2,64.6,69.0,63.5,59.0,94,82,66,29.94,29.70,13,4,17,0.44
2013-8-2,77.1,67.7,60.7,63.0,60.7,59.0,94,79,57,29.80,29.74,15,4,18,0.04
2013-8-3,72.6,64.9,58.1,62.0,58.9,56.0,95,82,60,29.82,29.72,13,4,17,0.41
2013-8-4,69.7,61.6,56.1,58.0,55.7,53.0,94,82,56,29.97,29.80,11,4,19,0.08
2013-8-5,73.9,61.2,49.0,54.0,49.8,42.0,94,70,40,30.05,29.97,7,2,11,0.01
2013-8-6,79.6,66.9,54.9,59.0,53.1,49.0,86,64,36,30.05,30.00,6,2,11,0.00
2013-8-7,79.5,71.0,62.5,66.0,60.8,55.0,80,71,56,30.01,29.84,15,5,19,0.00
2013-8-8,84.0,75.4,69.0,70.0,67.6,65.0,90,77,58,29.93,29.84,7,3,15,0.00
2013-8-9,78.9,71.8,66.8,71.0,68.2,63.0,95,88,73,29.87,29.73,8,2,9,0.44
2013-8-10,72.4,65.3,59.9,63.0,54.3,50.0,90,69,46,30.00,29.78,10,4,16,0.00
2013-8-11,75.5,65.6,55.5,58.0,55.6,51.0,93,72,44,30.05,29.96,10,3,15,0.00
2013-8-12,78.2,67.7,58.6,60.0,56.4,55.0,89,69,47,29.98,29.82,10,3,15,0.00
2013-8-13,75.1,65.5,56.4,65.0,60.8,53.0,93,85,70,29.82,29.63,7,2,17,0.20
2013-8-14,66.9,59.0,54.7,58.0,53.5,50.0,94,82,62,29.95,29.68,10,4,18,0.39
2013-8-15,72.8,61.8,51.3,57.0,53.1,49.0,92,75,49,30.05,29.96,15,4,19,0.00
2013-8-16,75.7,64.7,55.2,62.0,57.0,52.0,92,77,53,30.18,30.03,12,3,19,0.00
2013-8-17,77.2,66.3,53.7,60.0,56.5,52.0,94,73,48,30.27,30.18,6,2,9,0.01
2013-8-18,81.1,68.3,57.1,62.0,56.9,54.0,88,70,44,30.22,30.04,8,2,14,0.00
2013-8-19,81.1,70.3,61.5,64.0,60.1,58.0,88,72,50,30.05,29.94,11,4,16,0.00
2013-8-20,84.1,72.4,64.0,67.0,62.7,58.0,89,73,56,30.04,29.97,12,3,21,0.00
2013-8-21,84.7,74.5,65.9,70.0,65.2,60.0,84,73,58,30.08,29.93,12,3,17,0.00
2013-8-22,78.2,70.0,63.8,69.0,65.1,62.0,95,85,71,29.94,29.81,9,3,22,0.87
2013-8-23,73.0,63.4,54.5,62.0,55.8,53.0,95,78,52,30.18,29.91,7,2,11,0.01
2013-8-24,74.2,61.8,48.1,56.0,51.9,46.0,94,73,46,30.33,30.18,6,2,10,0.01
2013-8-25,76.8,65.8,53.6,59.0,54.6,51.0,89,69,42,30.32,30.05,6,2,16,0.01
2013-8-26,76.7,69.8,65.1,70.0,65.9,60.0,95,87,79,30.05,29.84,14,4,17,0.48
2013-8-27,77.9,70.6,67.2,71.0,68.1,66.0,96,92,80,29.89,29.82,5,2,7,0.01
2013-8-28,85.5,74.0,65.1,71.0,67.2,64.0,96,80,58,29.92,29.83,7,2,10,0.01
2013-8-29,78.3,69.6,64.0,68.0,65.5,63.0,95,87,70,30.02,29.91,8,2,11,0.00
2013-8-30,83.9,71.9,62.3,71.0,65.3,60.0,94,81,62,29.95,29.73,12,3,21,0.06
2013-8-31,75.0,69.4,66.6,69.0,66.7,65.0,94,91,81,29.79,29.70,7,2,7,0.07
2013-9-1,80.9,71.4,63.6,70.0,65.8,62.0,95,83,64,29.84,29.74,8,2,15,0.00
2013-9-2,78.5,69.5,65.0,71.0,66.2,63.0,95,89,76,29.75,29.61,7,2,25,1.12
2013-9-3,70.2,64.1,57.9,64.0,58.7,56.0,94,83,68,29.80,29.66,12,4,19,0.01
2013-9-4,68.6,61.5,56.4,60.0,57.6,54.0,93,87,73,29.90,29.80,10,3,15,0.03
2013-9-5,62.0,55.6,45.0,54.0,44.8,36.0,92,69,40,30.16,29.90,12,3,15,0.00
2013-9-6,68.4,55.2,41.4,50.0,44.0,38.0,88,68,45,30.23,30.01,14,3,20,0.00
2013-9-7,68.4,61.7,56.7,61.0,55.3,50.0,94,80,70,30.02,29.81,10,3,18,0.03
2013-9-8,61.6,56.5,45.4,59.0,47.1,39.0,95,73,45,30.08,29.78,9,4,18,0.14
2013-9-9,69.0,56.4,42.6,56.0,46.6,39.0,91,72,45,30.14,29.94,9,2,17,0.00
2013-9-10,77.8,69.7,59.2,74.0,66.0,53.0,95,88,75,29.96,29.85,7,2,12,0.73
2013-9-11,88.9,79.7,69.1,76.0,72.1,66.0,94,78,61,29.93,29.82,15,5,24,1.05
2013-9-12,72.3,68.9,61.9,69.0,66.7,60.0,96,93,87,29.84,29.61,12,3,15,1.76
2013-9-13,63.6,53.3,48.4,61.0,50.3,45.0,92,89,83,29.92,29.64,11,5,18,0.03
2013-9-14,61.2,51.5,44.6,47.0,44.4,42.0,92,78,52,30.05,29.91,7,3,13,0.01
2013-9-15,67.5,56.9,48.0,56.0,50.9,45.0,93,81,63,30.07,29.99,12,3,20,0.10
2013-9-16,54.5,49.4,39.7,52.0,43.4,36.0,94,81,51,30.35,29.98,10,4,14,0.23
2013-9-17,63.3,48.8,34.7,46.0,40.5,33.0,95,76,47,30.47,30.28,7,2,10,0.01
2013-9-18,71.6,57.5,45.5,51.0,46.0,41.0,89,68,43,30.28,30.08,10,3,15,0.00
2013-9-19,76.2,62.2,49.7,58.0,52.3,46.0,87,72,47,30.09,29.99,8,2,13,0.00
2013-9-20,82.5,68.7,57.7,62.0,56.4,52.0,86,67,40,29.99,29.77,8,3,14,0.00
2013-9-21,71.2,65.0,58.8,63.0,59.4,57.0,95,83,67,29.76,29.53,11,4,16,1.09
2013-9-22,58.9,51.2,43.5,58.0,47.6,41.0,95,88,74,29.94,29.52,12,5,16,0.32
2013-9-23,50.5,45.2,38.0,43.0,40.4,37.0,95,83,70,30.09,29.94,9,3,11,0.01
2013-9-24,62.7,49.2,37.1,46.0,42.2,36.0,95,78,50,30.08,29.93,9,3,15,0.00
2013-9-25,67.6,54.3,42.2,52.0,46.7,41.0,94,78,49,29.98,29.91,5,2,12,0.01
2013-9-26,65.2,53.6,44.3,50.0,47.2,42.0,94,80,57,30.14,29.97,16,3,17,0.00
2013-9-27,65.0,54.7,43.9,53.0,48.8,42.0,94,81,63,30.25,30.14,7,2,12,0.00
2013-9-28,73.5,58.7,45.3,56.0,51.2,43.0,94,78,53,30.32,30.18,8,2,9,0.01
2013-9-29,75.5,62.8,53.1,54.0,49.9,47.0,89,65,40,30.18,29.98,11,3,14,0.00
2013-9-30,76.4,64.0,54.3,56.0,52.0,49.0,85,67,43,30.01,29.91,5,2,7,0.00
2013-10-1,73.6,63.1,55.1,62.0,54.8,51.0,85,75,56,29.95,29.83,11,3,15,0.00
2013-10-2,76.6,66.4,57.7,64.0,56.5,46.0,90,72,38,29.96,29.80,16,4,24,0.00
2013-10-3,72.3,60.1,49.9,53.0,48.9,44.0,84,68,47,30.09,29.97,9,2,10,0.00
2013-10-4,60.2,55.6,49.6,55.0,50.0,46.0,89,82,71,30.06,30.00,5,2,11,0.00
2013-10-5,65.2,57.4,51.7,48.0,44.9,40.0,80,65,42,30.11,30.05,12,3,16,0.00
2013-10-6,66.2,54.4,48.9,61.0,48.5,39.0,95,81,67,30.09,29.78,21,5,22,0.40
2013-10-7,77.1,63.3,52.3,63.0,56.9,45.0,93,80,60,29.87,29.51,20,7,38,0.65
2013-10-8,59.5,49.9,41.1,45.0,40.7,38.0,89,72,47,30.33,29.88,9,3,15,0.00
2013-10-9,68.0,52.9,41.3,46.0,42.1,38.0,88,70,40,30.41,30.28,9,2,13,0.00
2013-10-10,68.7,54.0,40.4,50.0,43.3,38.0,92,71,36,30.28,30.14,4,1,6,0.00
2013-10-11,71.2,54.9,40.3,49.0,44.9,38.0,92,72,39,30.15,30.09,8,2,10,0.00
2013-10-12,72.0,57.2,43.1,55.0,48.1,41.0,93,73,50,30.23,30.12,7,2,13,0.00
2013-10-13,74.5,63.1,52.3,56.0,51.5,47.0,82,67,45,30.30,30.19,7,2,12,0.00
2013-10-14,64.3,58.1,49.7,57.0,53.9,47.0,94,86,72,30.26,30.19,5,2,11,0.16
2013-10-15,65.6,54.6,43.7,54.0,49.1,42.0,94,83,57,30.26,29.98,6,2,9,0.01
2013-10-16,68.9,62.4,54.2,56.0,53.3,47.0,91,73,51,29.97,29.71,13,4,18,0.23
2013-10-17,63.3,56.7,51.7,56.0,51.0,47.0,92,82,64,29.79,29.65,11,3,15,0.25
2013-10-18,58.8,52.9,48.6,50.0,46.6,42.0,94,80,57,29.84,29.61,15,4,32,0.03
2013-10-19,61.9,53.9,45.7,48.0,44.4,42.0,90,72,52,29.84,29.54,16,4,23,0.13
2013-10-20,55.2,47.9,41.9,47.0,39.3,35.0,90,73,51,29.95,29.55,15,5,22,0.04
2013-10-21,64.1,54.2,41.1,44.0,40.6,38.0,88,63,43,29.96,29.71,11,4,21,0.00
2013-10-22,61.2,48.1,38.7,48.0,38.1,30.0,91,70,45,29.73,29.63,17,5,27,0.20
2013-10-23,46.5,40.3,34.8,36.0,32.5,27.0,90,75,55,29.72,29.62,8,2,13,0.00
2013-10-24,44.1,37.4,31.2,36.0,31.3,26.0,89,79,68,29.89,29.66,12,4,18,0.03
2013-10-25,42.5,36.5,31.3,32.0,29.5,27.0,88,76,60,30.09,29.90,11,3,16,0.00
2013-10-26,42.4,39.3,32.8,37.0,34.5,28.0,92,82,75,30.06,29.71,15,5,30,0.23
2013-10-27,45.2,40.6,38.6,39.0,34.9,31.0,92,80,58,29.98,29.70,9,4,17,0.09
2013-10-28,44.1,39.8,27.8,39.0,29.2,18.0,85,68,37,30.39,29.92,18,5,24,0.00
2013-10-29,40.5,30.9,21.4,28.0,23.2,19.0,90,74,48,30.48,30.30,6,2,10,0.00
2013-10-30,42.4,37.0,32.3,38.0,32.3,22.0,93,83,61,30.30,30.16,7,2,12,0.08
2013-10-31,62.2,53.1,38.7,56.0,48.9,37.0,93,85,79,30.15,29.42,14,5,22,0.44
2013-11-1,64.6,58.3,49.6,59.0,51.5,45.0,90,79,61,29.58,29.10,27,10,48,0.57
2013-11-2,50.9,42.1,33.7,46.0,38.4,25.0,93,87,69,29.96,29.55,11,4,16,0.20
2013-11-3,37.4,32.2,24.8,24.0,19.4,16.0,82,61,42,30.51,29.96,12,4,17,0.00
2013-11-4,39.3,30.3,21.2,23.0,19.5,17.0,90,67,42,30.68,30.52,7,2,13,0.00
2013-11-5,55.7,44.2,32.3,36.0,27.5,18.0,67,53,41,30.55,30.32,11,3,16,0.00
2013-11-6,61.2,54.9,45.7,51.0,42.5,35.0,79,64,50,30.32,29.69,14,6,30,0.00
2013-11-7,56.7,44.0,34.1,53.0,38.4,27.0,92,80,67,29.88,29.64,15,5,25,0.33
2013-11-8,37.0,35.2,33.2,30.0,27.0,25.0,86,73,62,30.14,29.83,15,5,18,0.00
2013-11-9,40.9,34.9,28.0,35.0,27.6,23.0,89,75,52,30.18,29.77,8,3,11,0.03
2013-11-10,44.7,40.7,34.1,41.0,36.9,29.0,91,86,78,29.99,29.66,15,6,23,0.30
2013-11-11,42.0,34.4,24.4,36.0,29.5,20.0,93,82,70,30.09,29.80,12,4,24,0.33
2013-11-12,27.7,24.8,22.0,19.0,17.1,13.0,82,73,64,30.32,30.02,15,6,21,0.00
2013-11-13,34.3,25.9,17.7,29.0,18.0,10.0,82,72,60,30.35,29.95,11,4,22,0.00
2013-11-14,46.3,39.1,33.5,35.0,29.2,25.0,79,68,47,30.01,29.94,17,5,24,0.00
2013-11-15,51.2,45.3,41.9,31.0,26.9,23.0,60,49,44,30.10,29.96,14,4,20,0.00
2013-11-16,56.5,48.0,42.1,35.0,30.2,24.0,63,51,43,30.21,30.09,10,3,14,0.00
2013-11-17,61.5,55.2,48.3,53.0,47.1,33.0,87,75,57,30.11,29.38,18,8,30,0.11
2013-11-18,61.3,47.8,32.7,55.0,38.8,27.0,90,72,53,29.67,29.25,29,12,43,0.38
2013-11-19,32.8,29.6,23.4,29.0,19.0,16.0,85,65,59,30.42,29.68,14,6,24,0.00
2013-11-20,35.6,25.9,16.2,21.0,17.7,13.0,88,72,52,30.63,30.42,4,1,8,0.00
2013-11-21,46.4,35.5,21.3,30.0,21.0,13.0,76,57,31,30.56,30.28,10,2,14,0.00
2013-11-22,44.1,40.4,32.2,43.0,37.1,28.0,94,88,66,30.27,29.84,14,3,30,0.35
2013-11-23,31.5,26.6,17.3,27.0,21.3,10.0,90,80,67,30.04,29.79,19,6,24,0.00
2013-11-24,19.1,13.9,10.2,11.0,5.0,1.0,85,68,51,30.34,29.98,16,8,28,0.00
2013-11-25,33.2,21.1,6.6,21.0,11.6,1.0,81,68,50,30.38,30.06,16,4,22,0.01
2013-11-26,36.4,33.3,31.7,31.0,26.0,17.0,93,75,52,30.14,29.86,12,3,23,0.13
2013-11-27,33.4,30.6,20.5,32.0,28.7,17.0,94,92,85,29.85,29.46,13,4,20,1.04
2013-11-28,22.9,16.8,9.6,17.0,12.4,6.0,89,83,70,30.44,29.68,12,4,19,0.00
2013-11-29,19.2,10.4,1.9,12.0,6.1,-1.0,88,83,71,30.77,30.44,5,1,7,0.00
2013-11-30,26.9,17.3,5.6,21.0,12.2,2.0,87,80,70,30.77,30.21,7,2,9,0.00
2013-12-1,36.3,32.1,22.8,31.0,28.4,20.0,93,86,76,30.21,29.99,7,2,10,0.03
2013-12-2,32.7,31.7,30.4,31.0,30.2,29.0,94,93,93,29.99,29.86,5,2,9,0.01
2013-12-3,35.0,33.4,27.8,33.0,31.1,25.0,94,91,87,30.02,29.87,4,1,7,0.00
2013-12-4,34.4,28.9,23.6,30.0,26.1,21.0,92,89,83,30.12,30.01,8,2,10,0.00
2013-12-12,18.7,16.7,12.6,13.0,7.9,1.0,85,69,54,30.25,29.89,10,4,20,0.00
2013-12-13,18.5,9.3,-5.2,14.0,1.8,-10.0,86,72,54,30.47,29.88,14,5,21,0.00
2013-12-14,5.0,-0.4,-7.2,-1.0,-5.8,-12.0,85,78,65,30.59,30.00,13,4,18,0.00
2013-12-15,15.7,10.8,3.2,13.0,7.7,0.0,89,87,85,29.97,29.61,13,3,15,0.14
2013-12-16,11.8,0.4,-11.6,9.0,-4.0,-16.0,97,82,74,30.26,29.74,11,3,16,0.01
2013-12-17,6.7,-1.0,-12.6,4.0,-4.7,-17.0,96,84,80,30.24,29.97,6,2,12,0.00
2013-12-18,25.8,16.4,5.6,23.0,13.1,2.0,88,86,84,30.00,29.93,10,2,14,0.01
2013-12-19,34.2,30.4,24.7,29.0,25.2,21.0,91,81,73,30.04,29.86,18,3,18,0.05
2013-12-20,33.2,25.2,19.6,29.0,22.5,17.0,92,89,83,30.03,29.84,10,4,15,0.21
2013-12-21,27.1,23.5,20.3,25.0,21.4,18.0,93,92,91,29.96,29.77,9,4,13,0.45
2013-12-22,22.9,21.0,19.3,21.0,19.0,17.0,92,91,90,29.96,29.69,13,4,23,0.17
2013-12-23,25.5,23.0,14.4,24.0,20.9,11.0,93,91,86,30.23,29.94,4,1,7,0.27
2013-12-24,14.1,7.0,-1.4,11.0,3.5,-5.0,96,85,81,30.43,30.23,5,2,6,0.02
2013-12-25,8.9,2.0,-6.9,5.0,-1.7,-11.0,87,84,81,30.57,30.28,5,2,7,0.00
2013-12-26,27.2,17.6,6.0,25.0,15.1,3.0,91,89,86,30.27,30.06,7,1,10,0.15
2013-12-27,27.2,24.6,22.0,25.0,22.3,19.0,92,90,88,30.20,30.05,6,2,9,0.03
2013-12-28,35.7,34.0,24.7,33.0,31.5,22.0,92,90,87,30.04,29.91,9,4,15,0.20
2013-12-29,43.4,33.9,27.7,34.0,30.1,24.0,93,86,65,29.94,29.55,5,2,10,0.00
2013-12-30,37.4,8.5,1.6,34.0,1.8,-5.0,90,74,61,30.25,29.54,17,5,22,0.00
2013-12-31,16.8,8.5,2.2,13.0,3.7,-4.0,88,81,74,30.21,29.94,10,2,16,0.02
2014-1-1,10.4,1.9,-8.0,7.0,-4.4,-15.0,84,75,65,30.49,30.14,10,3,13,0.00
2014-1-2,-8.0,-10.8,-11.8,-14.0,-17.1,-20.0,80,74,66,30.48,30.13,17,6,22,0.00